SLN weather

Salina Municipal Airport
Salina, Kansas, United States

Public forecast

Using degrees Fahrenheit for public forecast. Weather courtesy of forecast.io.

METAR (pilot weather report)

Retrieved 2019/08/23 17:53 UTC (1 hour ago):

KSLN 231753Z 11015G28KT 10SM FEW024 27/20 A2997 RMK AO2 PK WND 11031/1737 SLP138 T02670200 10267 20206 58028

TAF (pilot weather forecast)

Retrieved 2019/08/23 18:39 UTC (19 minutes ago):

TAF KSLN 231736Z 2318/2418 11010KT P6SM SCT016 BKN025 TEMPO 2318/2322 BKN015 OVC025 FM232200 10011KT P6SM BKN035 FM240200 11007KT P6SM OVC020 FM240900 11007KT P6SM OVC008